createdAt,value
2023-12-09T00:02:23.901Z,3.45
2023-12-09T00:05:26.829Z,3.39
2023-12-09T00:08:31.055Z,3.36
2023-12-09T00:11:33.924Z,3.43
2023-12-09T00:14:36.881Z,3.43
2023-12-09T00:17:39.783Z,3.39
2023-12-09T00:20:42.568Z,3.36
2023-12-09T00:23:49.800Z,3.33
2023-12-09T00:26:52.656Z,3.44
2023-12-09T00:29:55.596Z,3.44
2023-12-09T00:32:58.523Z,3.53
2023-12-09T00:36:01.336Z,3.51
2023-12-09T00:39:06.321Z,3.42
2023-12-09T00:42:09.269Z,3.44
2023-12-09T00:45:12.652Z,3.53
2023-12-09T00:48:15.778Z,3.51
2023-12-09T00:51:18.883Z,3.44
2023-12-09T00:54:23.039Z,3.45
2023-12-09T00:57:26.098Z,3.54
2023-12-09T01:00:28.971Z,3.48
2023-12-09T01:03:31.969Z,3.50
2023-12-09T01:06:35.029Z,3.51
2023-12-09T01:09:39.185Z,3.54
2023-12-09T01:12:42.249Z,3.54
2023-12-09T01:15:45.011Z,3.47
2023-12-09T01:18:48.192Z,3.50
2023-12-09T01:21:51.014Z,3.47
2023-12-09T01:24:55.092Z,3.52
2023-12-09T01:27:57.967Z,3.55
2023-12-09T01:31:00.959Z,3.48
2023-12-09T01:34:04.314Z,3.51
2023-12-09T01:37:07.368Z,3.52
2023-12-09T01:40:16.781Z,3.52
2023-12-09T01:43:19.581Z,3.54
2023-12-09T01:46:23.649Z,3.52
2023-12-09T01:49:26.982Z,3.56
2023-12-09T01:52:30.767Z,3.52
2023-12-09T01:55:35.408Z,3.52
2023-12-09T01:58:39.656Z,3.59
2023-12-09T02:01:42.602Z,3.60
2023-12-09T02:04:45.559Z,3.59
2023-12-09T02:07:48.262Z,3.59
2023-12-09T02:11:02.863Z,3.62
2023-12-09T02:14:09.511Z,3.64
2023-12-09T02:17:17.132Z,3.65
2023-12-09T02:20:20.286Z,3.67
2023-12-09T02:23:24.383Z,3.63
2023-12-09T02:26:28.501Z,3.64
2023-12-09T02:29:41.141Z,3.64
2023-12-09T02:32:46.095Z,3.62
2023-12-09T02:35:51.482Z,3.68
2023-12-09T02:38:56.806Z,3.58
2023-12-09T02:42:00.706Z,3.67
2023-12-09T02:45:03.970Z,3.63
2023-12-09T02:48:07.132Z,3.62
2023-12-09T02:51:10.212Z,3.68
2023-12-09T02:54:14.806Z,3.67
2023-12-09T02:57:17.726Z,3.65
2023-12-09T03:00:20.538Z,3.73
2023-12-09T03:03:23.568Z,3.72
2023-12-09T03:06:26.451Z,3.78
2023-12-09T03:09:30.736Z,3.68
2023-12-09T03:12:33.675Z,3.65
2023-12-09T03:15:36.621Z,3.69
2023-12-09T03:18:39.690Z,3.70
2023-12-09T03:21:42.521Z,3.76
2023-12-09T03:24:46.682Z,3.78
2023-12-09T03:27:49.522Z,3.71
2023-12-09T03:30:52.250Z,3.69
2023-12-09T03:33:56.508Z,3.74
2023-12-09T03:36:59.604Z,3.77
2023-12-09T03:40:11.265Z,3.76
2023-12-09T03:43:14.069Z,3.82
2023-12-09T03:46:17.086Z,3.87
2023-12-09T03:49:20.036Z,3.88
2023-12-09T03:52:22.835Z,3.81
2023-12-09T03:55:26.952Z,3.75
2023-12-09T03:58:29.683Z,3.78
2023-12-09T04:01:32.623Z,3.83
2023-12-09T04:04:35.419Z,3.83
2023-12-09T04:07:38.413Z,3.84
2023-12-09T04:10:42.834Z,3.83
2023-12-09T04:13:45.794Z,3.80
2023-12-09T04:16:48.506Z,3.84
2023-12-09T04:19:53.038Z,3.79
2023-12-09T04:22:55.927Z,3.87
2023-12-09T04:26:00.442Z,3.86
2023-12-09T04:29:04.088Z,3.86
2023-12-09T04:32:07.336Z,3.84
2023-12-09T04:35:10.855Z,3.82
2023-12-09T04:38:13.594Z,3.81
2023-12-09T04:41:17.790Z,3.83
2023-12-09T04:44:20.667Z,3.85
2023-12-09T04:47:23.692Z,3.81
2023-12-09T04:50:26.932Z,3.85
2023-12-09T04:53:29.661Z,3.88
2023-12-09T04:56:33.917Z,3.89
2023-12-09T04:59:36.826Z,3.87
2023-12-09T05:02:39.598Z,3.96
2023-12-09T05:05:42.682Z,3.91
2023-12-09T05:08:45.428Z,3.94
2023-12-09T05:11:49.526Z,3.91
2023-12-09T05:14:52.244Z,3.96
2023-12-09T05:17:55.720Z,3.92
2023-12-09T05:20:58.640Z,4.00
2023-12-09T05:24:01.420Z,3.99
2023-12-09T05:27:06.185Z,4.11
2023-12-09T05:30:10.101Z,4.02
2023-12-09T05:33:12.959Z,3.99
2023-12-09T05:36:16.032Z,3.87
2023-12-09T05:39:18.966Z,3.94
2023-12-09T05:42:23.206Z,3.95
2023-12-09T05:45:29.661Z,3.97
2023-12-09T05:48:34.650Z,3.95
2023-12-09T05:51:37.807Z,3.92
2023-12-09T05:54:40.644Z,3.93
2023-12-09T05:57:45.070Z,4.00
2023-12-09T06:00:48.145Z,4.01
2023-12-09T06:03:50.962Z,3.96
2023-12-09T06:06:54.143Z,4.07
2023-12-09T06:09:56.888Z,4.00
2023-12-09T06:13:01.170Z,4.01
2023-12-09T06:16:04.094Z,3.99
2023-12-09T06:19:06.820Z,4.08
2023-12-09T06:22:09.732Z,4.07
2023-12-09T06:25:12.616Z,4.12
2023-12-09T06:28:16.717Z,4.06
2023-12-09T06:31:19.429Z,4.19
2023-12-09T06:34:22.262Z,4.24
2023-12-09T06:37:25.062Z,4.18
2023-12-09T06:40:28.036Z,4.23
2023-12-09T06:43:33.671Z,4.19
2023-12-09T06:46:39.113Z,4.21
2023-12-09T06:49:41.925Z,4.13
2023-12-09T06:52:45.210Z,4.24
2023-12-09T06:55:47.913Z,4.38
2023-12-09T06:58:52.465Z,4.32
2023-12-09T07:01:58.068Z,4.38
2023-12-09T07:05:00.809Z,4.32
2023-12-09T07:08:04.019Z,4.29
2023-12-09T07:11:07.724Z,4.39
2023-12-09T07:14:11.917Z,4.34
2023-12-09T07:17:14.776Z,4.36
2023-12-09T07:20:17.922Z,4.35
2023-12-09T07:23:20.778Z,4.33
2023-12-09T07:26:23.515Z,4.34
2023-12-09T07:29:29.599Z,4.44
2023-12-09T07:32:33.815Z,4.30
2023-12-09T07:35:36.856Z,4.31
2023-12-09T07:38:39.764Z,4.39
2023-12-09T07:41:44.137Z,4.38
2023-12-09T07:44:48.289Z,4.43
2023-12-09T07:47:51.178Z,4.45
2023-12-09T07:50:53.976Z,4.54
2023-12-09T07:56:59.637Z,4.67
2023-12-09T08:00:04.936Z,4.62
2023-12-09T08:03:07.756Z,4.57
2023-12-09T08:06:11.640Z,4.61
2023-12-09T08:09:14.613Z,4.68
2023-12-09T08:12:17.365Z,4.66
2023-12-09T08:15:21.600Z,4.84
2023-12-09T08:18:24.481Z,4.91
2023-12-09T08:21:27.426Z,4.88
2023-12-09T08:24:30.305Z,4.89
2023-12-09T08:27:33.128Z,4.78
2023-12-09T08:30:37.610Z,4.71
2023-12-09T08:33:41.269Z,4.74
2023-12-09T08:36:44.408Z,4.84
2023-12-09T08:39:48.847Z,4.75
2023-12-09T08:42:51.963Z,4.80
2023-12-09T08:45:56.047Z,4.80
2023-12-09T08:48:58.940Z,4.81
2023-12-09T08:52:01.773Z,4.97
2023-12-09T08:55:04.735Z,4.92
2023-12-09T08:58:07.492Z,4.91
2023-12-09T09:01:13.414Z,4.94
2023-12-09T09:04:17.019Z,4.90
2023-12-09T09:07:20.004Z,4.98
2023-12-09T09:10:24.029Z,5.15
2023-12-09T09:13:29.785Z,5.17
2023-12-09T09:16:34.028Z,5.16
2023-12-09T09:19:36.939Z,5.37
2023-12-09T09:22:47.497Z,5.21
2023-12-09T09:25:52.573Z,5.34
2023-12-09T09:28:56.297Z,5.32
2023-12-09T09:32:00.477Z,5.29
2023-12-09T09:35:04.277Z,5.37
2023-12-09T09:38:07.489Z,5.27
2023-12-09T09:41:17.269Z,5.42
2023-12-09T09:44:23.726Z,5.43
2023-12-09T09:47:30.907Z,5.44
2023-12-09T09:50:40.706Z,5.57
2023-12-09T09:53:52.727Z,5.53
2023-12-09T09:56:59.193Z,5.54
2023-12-09T10:00:02.769Z,5.45
2023-12-09T10:03:07.709Z,5.50
2023-12-09T10:06:12.877Z,5.63
2023-12-09T10:09:16.218Z,5.57
2023-12-09T10:12:19.118Z,5.71
2023-12-09T10:15:22.656Z,5.69
2023-12-09T10:18:27.241Z,5.60
2023-12-09T10:21:30.172Z,5.52
2023-12-09T10:24:33.152Z,5.53
2023-12-09T10:27:36.355Z,5.52
2023-12-09T10:30:39.533Z,5.59
2023-12-09T10:33:47.118Z,5.60
2023-12-09T10:36:50.090Z,5.72
2023-12-09T10:39:54.750Z,5.81
2023-12-09T10:42:58.833Z,5.94
2023-12-09T10:46:01.931Z,5.93
2023-12-09T10:49:07.625Z,6.00
2023-12-09T10:52:11.777Z,6.05
2023-12-09T10:55:15.888Z,5.99
2023-12-09T10:58:20.115Z,5.96
2023-12-09T11:01:23.860Z,6.14
2023-12-09T11:04:34.907Z,6.16
2023-12-09T11:07:41.998Z,6.22
2023-12-09T11:13:56.826Z,6.29
2023-12-09T11:17:01.490Z,6.32
2023-12-09T11:23:16.616Z,6.92
2023-12-09T11:26:31.590Z,6.94
2023-12-09T11:29:35.810Z,6.92
2023-12-09T11:32:38.746Z,6.94
2023-12-09T11:35:47.002Z,7.13
2023-12-09T11:38:52.385Z,6.93
2023-12-09T11:41:58.733Z,6.86
2023-12-09T11:45:05.025Z,6.94
2023-12-09T11:48:11.741Z,7.07
2023-12-09T11:51:17.764Z,6.88
2023-12-09T11:54:21.959Z,7.42
2023-12-09T11:57:24.788Z,7.33
2023-12-09T12:00:29.794Z,7.27
2023-12-09T12:03:34.034Z,7.12
2023-12-09T12:06:38.030Z,7.05
2023-12-09T12:09:46.998Z,7.03
2023-12-09T12:12:51.576Z,7.00
2023-12-09T12:15:56.127Z,7.29
2023-12-09T12:19:02.267Z,7.00
2023-12-09T12:22:06.444Z,6.96
2023-12-09T12:25:11.587Z,6.90
2023-12-09T12:28:18.148Z,6.98
2023-12-09T12:31:22.087Z,6.97
2023-12-09T12:34:25.457Z,6.98
2023-12-09T12:37:30.169Z,6.93
2023-12-09T12:40:45.287Z,6.92
2023-12-09T12:43:54.194Z,6.88
2023-12-09T12:46:57.111Z,6.81
2023-12-09T12:50:00.279Z,6.77
2023-12-09T12:53:04.199Z,6.77
2023-12-09T12:56:09.989Z,6.77
2023-12-09T12:59:14.906Z,6.73
2023-12-09T13:02:23.409Z,6.77
2023-12-09T13:05:26.500Z,6.89
2023-12-09T13:08:29.406Z,6.93
2023-12-09T13:11:33.631Z,6.87
2023-12-09T13:14:36.623Z,6.98
2023-12-09T13:17:40.264Z,7.04
2023-12-09T13:20:48.084Z,6.91
2023-12-09T13:23:51.070Z,7.05
2023-12-09T13:27:00.011Z,7.13
2023-12-09T13:30:05.621Z,7.12
2023-12-09T13:33:08.731Z,7.18
2023-12-09T13:36:13.877Z,7.24
2023-12-09T13:39:17.058Z,7.29
2023-12-09T13:42:21.411Z,7.25
2023-12-09T13:45:25.708Z,7.29
2023-12-09T13:48:29.950Z,7.22
2023-12-09T13:51:33.165Z,7.13
2023-12-09T13:54:36.846Z,7.23
2023-12-09T13:57:41.891Z,7.17
2023-12-09T14:00:46.777Z,7.19
2023-12-09T14:03:54.844Z,7.04
2023-12-09T14:06:58.989Z,7.08
2023-12-09T14:10:02.259Z,7.01
2023-12-09T14:13:09.272Z,6.94
2023-12-09T14:16:12.376Z,6.84
2023-12-09T14:19:15.477Z,6.67
2023-12-09T14:22:18.516Z,6.62
2023-12-09T14:25:24.749Z,6.59
2023-12-09T14:28:31.075Z,6.62
2023-12-09T14:31:33.957Z,6.54
2023-12-09T14:34:36.945Z,6.40
2023-12-09T14:37:45.922Z,6.32
2023-12-09T14:40:51.793Z,6.19
2023-12-09T14:44:03.392Z,6.24
2023-12-09T14:47:08.918Z,6.13
2023-12-09T14:50:14.121Z,6.08
2023-12-09T14:53:20.872Z,6.01
2023-12-09T14:56:23.914Z,5.99
2023-12-09T14:59:30.584Z,5.94
2023-12-09T15:02:34.425Z,6.05
2023-12-09T15:05:37.453Z,5.92
2023-12-09T15:08:42.323Z,5.87
2023-12-09T15:11:45.455Z,5.82
2023-12-09T15:14:50.622Z,5.89
2023-12-09T15:17:57.116Z,5.92
2023-12-09T15:21:03.316Z,5.83
2023-12-09T15:24:07.819Z,5.82
2023-12-09T15:27:14.619Z,5.70
2023-12-09T15:30:20.046Z,5.66
2023-12-09T15:33:28.828Z,5.56
2023-12-09T15:36:32.000Z,5.52
2023-12-09T15:39:40.326Z,5.50
2023-12-09T15:42:43.612Z,5.36
2023-12-09T15:45:48.226Z,5.32
2023-12-09T15:48:51.253Z,5.25
2023-12-09T15:51:55.513Z,5.22
2023-12-09T15:54:58.851Z,5.21
2023-12-09T15:58:02.111Z,5.20
2023-12-09T16:01:06.705Z,5.26
2023-12-09T16:04:09.723Z,5.28
2023-12-09T16:07:13.106Z,5.51
2023-12-09T16:10:16.750Z,5.33
2023-12-09T16:13:24.828Z,5.47
2023-12-09T16:16:29.443Z,5.33
2023-12-09T16:19:32.549Z,5.28
2023-12-09T16:22:35.593Z,5.39
2023-12-09T16:25:38.944Z,5.48
2023-12-09T16:28:43.005Z,5.33
2023-12-09T16:31:47.769Z,5.25
2023-12-09T16:34:50.923Z,5.39
2023-12-09T16:37:53.853Z,5.31
2023-12-09T16:40:56.725Z,5.33
2023-12-09T16:43:59.520Z,5.37
2023-12-09T16:47:05.349Z,5.30
2023-12-09T16:50:11.846Z,5.17
2023-12-09T16:53:21.374Z,5.15
2023-12-09T16:56:28.413Z,5.20
2023-12-09T16:59:33.736Z,5.20
2023-12-09T17:02:39.197Z,5.10
2023-12-09T17:05:44.800Z,5.14
2023-12-09T17:08:49.794Z,5.22
2023-12-09T17:11:53.999Z,5.21
2023-12-09T17:14:56.884Z,5.11
2023-12-09T17:18:01.281Z,5.19
2023-12-09T17:21:04.578Z,5.20
2023-12-09T17:24:07.854Z,5.16
2023-12-09T17:27:11.989Z,5.23
2023-12-09T17:30:17.125Z,5.13
2023-12-09T17:33:23.884Z,5.14
2023-12-09T17:36:28.479Z,5.13
2023-12-09T17:39:33.773Z,5.12
2023-12-09T17:42:39.294Z,5.09
2023-12-09T17:45:43.416Z,4.94
2023-12-09T17:48:49.178Z,5.02
2023-12-09T17:51:52.259Z,5.01
2023-12-09T17:54:55.307Z,4.94
2023-12-09T17:57:58.931Z,4.86
2023-12-09T18:01:05.046Z,4.98
2023-12-09T18:04:09.562Z,4.95
2023-12-09T18:07:12.537Z,4.88
2023-12-09T18:10:18.534Z,4.90
2023-12-09T18:13:24.125Z,4.77
2023-12-09T18:16:29.207Z,4.88
2023-12-09T18:19:33.637Z,4.89
2023-12-09T18:22:37.070Z,4.71
2023-12-09T18:25:42.108Z,4.80
2023-12-09T18:28:45.348Z,4.93
2023-12-09T18:31:48.366Z,4.73
2023-12-09T18:34:55.741Z,4.81
2023-12-09T18:38:04.910Z,4.87
2023-12-09T18:41:10.888Z,4.74
2023-12-09T18:44:16.525Z,4.89
2023-12-09T18:47:21.498Z,4.81
2023-12-09T18:50:25.818Z,4.59
2023-12-09T18:53:28.887Z,4.73
2023-12-09T18:56:31.881Z,4.75
2023-12-09T18:59:34.884Z,4.73
2023-12-09T19:02:39.966Z,4.86
2023-12-09T19:05:49.466Z,4.79
2023-12-09T19:08:54.918Z,4.72
2023-12-09T19:11:58.372Z,4.68
2023-12-09T19:15:01.259Z,4.62
2023-12-09T19:18:07.769Z,4.64
2023-12-09T19:21:16.495Z,4.81
2023-12-09T19:24:19.523Z,4.73
2023-12-09T19:27:22.572Z,4.67
2023-12-09T19:30:25.674Z,4.64
2023-12-09T19:33:29.959Z,4.61
2023-12-09T19:36:34.362Z,4.61
2023-12-09T19:39:37.412Z,4.63
2023-12-09T19:42:40.624Z,4.54
2023-12-09T19:45:43.794Z,4.45
2023-12-09T19:48:46.807Z,4.48
2023-12-09T19:51:51.082Z,4.31
2023-12-09T19:54:54.537Z,4.46
2023-12-09T19:57:58.270Z,4.48
2023-12-09T20:01:02.130Z,4.36
2023-12-09T20:04:05.342Z,4.44
2023-12-09T20:07:09.749Z,4.26
2023-12-09T20:10:13.092Z,4.30
2023-12-09T20:13:17.099Z,4.42
2023-12-09T20:16:19.937Z,4.36
2023-12-09T20:19:25.848Z,4.31
2023-12-09T20:22:30.984Z,4.28
2023-12-09T20:25:34.431Z,4.27
2023-12-09T20:28:37.354Z,4.38
2023-12-09T20:31:40.138Z,4.39
2023-12-09T20:34:43.195Z,4.27
2023-12-09T20:37:48.298Z,4.42
2023-12-09T20:40:51.138Z,4.51
2023-12-09T20:43:54.042Z,4.34
2023-12-09T20:46:56.960Z,4.29
2023-12-09T20:50:00.086Z,4.32
2023-12-09T20:53:06.927Z,4.54
2023-12-09T20:56:17.543Z,4.47
2023-12-09T20:59:20.355Z,4.35
2023-12-09T21:02:24.820Z,4.37
2023-12-09T21:05:27.888Z,4.44
2023-12-09T21:08:32.133Z,4.42
2023-12-09T21:11:38.480Z,4.46
2023-12-09T21:14:41.278Z,4.37
2023-12-09T21:17:44.363Z,4.33
2023-12-09T21:20:47.356Z,4.38
2023-12-09T21:23:51.545Z,4.40
2023-12-09T21:26:54.495Z,4.41
2023-12-09T21:29:57.586Z,4.31
2023-12-09T21:33:01.163Z,4.48
2023-12-09T21:36:04.324Z,4.54
2023-12-09T21:39:09.903Z,4.55
2023-12-09T21:42:12.784Z,4.58
2023-12-09T21:45:15.830Z,4.49
2023-12-09T21:48:18.813Z,4.45
2023-12-09T21:51:22.242Z,4.50
2023-12-09T21:54:26.584Z,4.51
2023-12-09T21:57:29.566Z,4.63
2023-12-09T22:00:32.372Z,4.58
2023-12-09T22:03:35.419Z,4.77
2023-12-09T22:06:38.342Z,4.64
2023-12-09T22:09:42.830Z,4.68
2023-12-09T22:12:47.208Z,4.72
2023-12-09T22:15:50.295Z,4.65
2023-12-09T22:18:53.177Z,4.68
2023-12-09T22:21:56.208Z,4.64
2023-12-09T22:25:00.729Z,4.81
2023-12-09T22:28:04.284Z,4.79
2023-12-09T22:31:09.624Z,4.87
2023-12-09T22:34:13.054Z,4.87
2023-12-09T22:37:16.763Z,4.76
2023-12-09T22:40:21.054Z,4.85
2023-12-09T22:43:24.042Z,4.94
2023-12-09T22:46:28.429Z,4.84
2023-12-09T22:49:31.628Z,4.92
2023-12-09T22:52:34.536Z,4.90
2023-12-09T22:55:38.724Z,4.91
2023-12-09T22:58:41.694Z,5.00
2023-12-09T23:01:46.195Z,4.95
2023-12-09T23:04:49.303Z,4.94
2023-12-09T23:07:52.223Z,4.97
2023-12-09T23:10:56.532Z,4.84
2023-12-09T23:13:59.391Z,4.93
2023-12-09T23:17:02.455Z,4.88
2023-12-09T23:20:06.584Z,4.90
2023-12-09T23:23:09.902Z,4.91
2023-12-09T23:26:14.350Z,4.96
2023-12-09T23:29:17.160Z,5.07
2023-12-09T23:32:20.019Z,4.83
2023-12-09T23:35:22.821Z,4.95
2023-12-09T23:38:25.696Z,4.94
2023-12-09T23:41:30.145Z,5.01
2023-12-09T23:44:32.991Z,4.87
2023-12-09T23:47:35.989Z,5.01
2023-12-09T23:50:38.866Z,4.94
2023-12-09T23:53:41.862Z,4.83
2023-12-09T23:56:46.024Z,4.97
2023-12-09T23:59:48.965Z,4.79
